Time;durP1;ratioP1;P1;durP2;ratioP2;P2;SDS_P1;SDS_P2;PMS_P1;PMS_P2;Temp;Humidity;BMP_temperature;BMP_pressure;BME280_temperature;BME280_humidity;BME280_pressure;Samples;Min_cycle;Max_cycle;Signal;HPM_P1;HPM_P2
2022/09/13 00:00:29;;;;;;;20.83;15.88;;;18.20;99.90;;;;;;5061820;28;20047;-75
2022/09/13 00:02:55;;;;;;;22.67;16.45;;;18.10;99.90;;;;;;5071530;28;20057;-74
2022/09/13 00:05:21;;;;;;;;;;;18.00;99.90;;;;;;5070052;28;20048;-74
2022/09/13 00:07:47;;;;;;;22.67;16.30;;;18.10;99.90;;;;;;5106635;28;19920;-74
2022/09/13 00:10:13;;;;;;;24.35;16.92;;;18.00;99.90;;;;;;5081638;28;20056;-75
2022/09/13 00:12:39;;;;;;;25.13;17.95;;;18.00;99.90;;;;;;5069270;28;20044;-75
2022/09/13 00:15:05;;;;;;;24.55;17.70;;;18.00;99.90;;;;;;5066244;28;20042;-75
2022/09/13 00:17:31;;;;;;;21.42;17.90;;;18.00;99.90;;;;;;5075079;28;20073;-75
2022/09/13 00:19:56;;;;;;;24.50;17.45;;;18.00;99.90;;;;;;5053929;28;20453;-74
2022/09/13 00:22:22;;;;;;;23.83;18.05;;;18.00;99.90;;;;;;5075395;28;20117;-74
2022/09/13 00:24:48;;;;;;;23.85;16.55;;;18.00;99.90;;;;;;5050129;28;20075;-74
2022/09/13 00:27:13;;;;;;;22.45;15.98;;;18.00;99.90;;;;;;5077457;28;20043;-74
2022/09/13 00:29:39;;;;;;;19.65;15.05;;;18.00;99.90;;;;;;5078570;28;20049;-74
2022/09/13 00:32:05;;;;;;;19.48;15.23;;;18.00;99.90;;;;;;5070633;28;20422;-74
2022/09/13 00:34:30;;;;;;;23.05;17.17;;;17.90;99.90;;;;;;5066441;28;20180;-74
2022/09/13 00:36:56;;;;;;;23.73;17.52;;;17.90;99.90;;;;;;5047880;28;20555;-74
2022/09/13 00:39:22;;;;;;;27.55;18.30;;;17.90;99.90;;;;;;5046499;28;20052;-75
2022/09/13 00:41:47;;;;;;;27.13;18.88;;;17.90;99.90;;;;;;5049988;28;20038;-75
2022/09/13 00:44:50;;;;;;;32.45;20.20;;;17.90;99.90;;;;;;5069823;28;20176;-75
2022/09/13 00:47:21;;;;;;;31.15;20.65;;;17.90;99.90;;;;;;5066876;28;20095;-74
2022/09/13 00:49:50;;;;;;;29.75;21.23;;;17.90;99.90;;;;;;5064776;28;20552;-74
2022/09/13 00:52:19;;;;;;;32.97;23.02;;;17.90;99.90;;;;;;5067000;28;20658;-74
2022/09/13 00:55:03;;;;;;;32.95;22.45;;;17.80;99.90;;;;;;5072469;28;20042;-74
2022/09/13 00:57:31;;;;;;;36.03;24.77;;;17.90;99.90;;;;;;5077655;28;20040;-74
2022/09/13 01:00:17;;;;;;;35.72;23.52;;;17.90;99.90;;;;;;5069146;28;20049;-74
2022/09/13 01:02:54;;;;;;;34.95;23.80;;;17.90;99.90;;;;;;5071847;28;20076;-75
2022/09/13 01:05:28;;;;;;;36.53;24.48;;;17.90;99.90;;;;;;5070620;28;20041;-75
2022/09/13 01:07:55;;;;;;;31.95;22.40;;;17.80;99.90;;;;;;5064797;28;20511;-75
2022/09/13 01:10:22;;;;;;;31.73;23.20;;;17.80;99.90;;;;;;5074019;28;20543;-75
2022/09/13 01:12:58;;;;;;;32.05;21.45;;;17.80;99.90;;;;;;5069955;28;20116;-75
2022/09/13 01:15:24;;;;;;;24.80;18.97;;;17.80;99.90;;;;;;5066880;28;20037;-75
2022/09/13 01:17:51;;;;;;;26.55;18.40;;;17.80;99.90;;;;;;5075274;28;20052;-75
2022/09/13 01:20:17;;;;;;;26.77;18.85;;;17.80;99.90;;;;;;5065371;28;20078;-75
2022/09/13 01:23:14;;;;;;;23.60;17.40;;;17.70;99.90;;;;;;5048240;28;20088;-75
2022/09/13 01:25:56;;;;;;;21.48;15.73;;;17.70;99.90;;;;;;5065625;28;20054;-75
2022/09/13 01:28:57;;;;;;;23.58;16.00;;;17.70;99.90;;;;;;5061889;28;20376;-74
2022/09/13 01:31:37;;;;;;;19.48;15.10;;;17.70;99.90;;;;;;5034413;28;20046;-74
2022/09/13 01:34:20;;;;;;;20.48;15.45;;;17.70;99.90;;;;;;5068657;28;20091;-74
2022/09/13 01:36:45;;;;;;;23.88;14.45;;;17.70;99.90;;;;;;5065865;28;20046;-74
2022/09/13 01:39:21;;;;;;;19.60;13.98;;;17.70;99.90;;;;;;5069762;28;20049;-74
2022/09/13 01:42:02;;;;;;;20.50;14.27;;;17.70;99.90;;;;;;5069586;28;20223;-75
2022/09/13 01:44:52;;;;;;;19.38;13.38;;;17.70;99.90;;;;;;5068685;28;20042;-75
2022/09/13 01:47:37;;;;;;;18.00;12.32;;;17.70;99.90;;;;;;5079811;28;20048;-75
2022/09/13 01:50:16;;;;;;;17.13;12.95;;;17.70;99.90;;;;;;5074666;28;20042;-75
2022/09/13 01:53:20;;;;;;;15.88;12.73;;;17.70;99.90;;;;;;5053738;28;20046;-75
2022/09/13 01:55:56;;;;;;;16.30;12.50;;;17.70;99.90;;;;;;5059735;28;20048;-76
2022/09/13 01:58:50;;;;;;;15.43;12.30;;;17.70;99.90;;;;;;5075801;28;20092;-75
2022/09/13 02:01:32;;;;;;;19.23;12.05;;;17.60;99.90;;;;;;5058029;28;20380;-75
2022/09/13 02:04:11;;;;;;;17.05;12.07;;;17.60;99.90;;;;;;5068540;28;20367;-75
2022/09/13 02:06:45;;;;;;;18.42;12.50;;;17.70;99.90;;;;;;5075058;28;20104;-75
2022/09/13 02:09:18;;;;;;;17.33;12.57;;;17.60;99.90;;;;;;5045153;28;20034;-75
2022/09/13 02:11:48;;;;;;;17.52;12.05;;;17.60;99.90;;;;;;5080675;28;20042;-75
2022/09/13 02:14:23;;;;;;;16.25;11.80;;;17.70;99.90;;;;;;5072015;28;20069;-74
2022/09/13 02:17:02;;;;;;;15.75;11.88;;;17.60;99.90;;;;;;5074109;28;20080;-75
2022/09/13 02:19:46;;;;;;;16.85;12.23;;;17.60;99.90;;;;;;5059057;28;20067;-76
2022/09/13 02:22:17;;;;;;;16.92;12.20;;;17.60;99.90;;;;;;5074142;28;20674;-75
2022/09/13 02:24:47;;;;;;;17.20;12.63;;;17.60;99.90;;;;;;5074996;28;20045;-75
2022/09/13 02:27:18;;;;;;;17.58;12.50;;;17.50;99.90;;;;;;5071526;28;20064;-75
2022/09/13 02:29:48;;;;;;;16.25;12.02;;;17.50;99.90;;;;;;5082546;28;20046;-75
2022/09/13 02:32:23;;;;;;;16.48;12.27;;;17.50;99.90;;;;;;5068231;28;20057;-75
2022/09/13 02:35:19;;;;;;;15.45;11.85;;;17.50;99.90;;;;;;5071905;28;20564;-75
2022/09/13 02:37:59;;;;;;;15.25;11.32;;;17.50;99.90;;;;;;5079177;28;20055;-75
2022/09/13 02:40:30;;;;;;;16.08;11.30;;;17.50;99.90;;;;;;5051452;28;20121;-75
2022/09/13 02:43:19;;;;;;;18.17;13.82;;;17.50;99.90;;;;;;5074781;28;20038;-75
2022/09/13 02:46:09;;;;;;;17.98;12.95;;;17.50;99.90;;;;;;5082025;28;20453;-75
2022/09/13 02:48:35;;;;;;;18.25;12.85;;;17.60;99.90;;;;;;5077033;28;20051;-75
2022/09/13 02:51:19;;;;;;;20.25;13.18;;;17.50;99.90;;;;;;5059104;28;20045;-75
2022/09/13 02:54:04;;;;;;;17.17;12.77;;;17.60;99.90;;;;;;5074382;28;20041;-75
2022/09/13 02:56:56;;;;;;;19.00;13.07;;;17.60;99.90;;;;;;5068337;28;20050;-75
2022/09/13 02:59:24;;;;;;;17.02;12.43;;;17.60;99.90;;;;;;5072362;28;20056;-75
2022/09/13 03:02:12;;;;;;;18.20;12.95;;;17.70;99.90;;;;;;5069898;28;20451;-75
2022/09/13 03:04:38;;;;;;;17.13;12.23;;;17.70;99.90;;;;;;5058254;28;20039;-74
2022/09/13 03:07:09;;;;;;;18.45;13.68;;;17.70;99.90;;;;;;5041617;28;20123;-75
2022/09/13 03:09:34;;;;;;;21.27;13.55;;;17.60;99.90;;;;;;5064242;28;20048;-75
2022/09/13 03:12:31;;;;;;;18.63;14.60;;;17.60;99.90;;;;;;5059450;28;20394;-74
2022/09/13 03:15:31;;;;;;;19.58;14.65;;;17.60;99.90;;;;;;5077797;28;20060;-75
2022/09/13 03:18:21;;;;;;;20.88;14.02;;;17.60;99.90;;;;;;5071203;28;20043;-74
2022/09/13 03:20:55;;;;;;;11.07;7.50;;;17.60;99.90;;;;;;5070600;28;20124;-74
2022/09/13 03:23:32;;;;;;;9.15;6.03;;;17.50;99.90;;;;;;5079155;28;20042;-74
2022/09/13 03:26:04;;;;;;;;;;;17.40;99.90;;;;;;5066027;28;20038;-74
2022/09/13 03:28:29;;;;;;;5.28;3.10;;;17.40;99.90;;;;;;5078279;28;19921;-74
2022/09/13 03:31:26;;;;;;;4.35;2.40;;;17.40;99.90;;;;;;5072806;28;20085;-74
2022/09/13 03:34:15;;;;;;;3.25;1.40;;;17.30;99.90;;;;;;5067718;28;20110;-74
2022/09/13 03:36:44;;;;;;;4.25;1.58;;;17.30;99.90;;;;;;5046939;28;20038;-75
2022/09/13 03:39:16;;;;;;;2.97;1.52;;;17.30;99.90;;;;;;5055563;28;20523;-74
2022/09/13 03:41:49;;;;;;;4.03;1.30;;;17.30;99.90;;;;;;5072798;28;20081;-75
2022/09/13 03:44:19;;;;;;;4.03;1.63;;;17.30;99.90;;;;;;5063210;28;20053;-74
2022/09/13 03:46:48;;;;;;;3.25;1.60;;;17.30;99.90;;;;;;5069033;28;20358;-75
2022/09/13 03:49:16;;;;;;;4.80;1.70;;;17.30;99.90;;;;;;5062753;28;20038;-74
2022/09/13 03:51:44;;;;;;;4.05;1.70;;;17.30;99.90;;;;;;5074948;28;20038;-75
2022/09/13 03:54:23;;;;;;;3.25;1.60;;;17.40;99.90;;;;;;5078938;28;20081;-75
2022/09/13 03:57:08;;;;;;;5.05;1.30;;;17.40;99.90;;;;;;5077428;28;20046;-74
2022/09/13 03:59:37;;;;;;;4.13;1.83;;;17.40;99.90;;;;;;5029936;28;20087;-75
2022/09/13 04:02:03;;;;;;;3.60;1.60;;;17.40;99.90;;;;;;5070001;28;20352;-75
2022/09/13 04:04:29;;;;;;;2.55;1.50;;;17.40;99.90;;;;;;5061631;28;20045;-75
2022/09/13 04:06:55;;;;;;;3.58;2.00;;;17.40;99.90;;;;;;5070079;28;20038;-75
2022/09/13 04:09:22;;;;;;;4.53;1.90;;;17.40;99.90;;;;;;5068510;28;20042;-75
2022/09/13 04:11:47;;;;;;;;;;;17.40;99.90;;;;;;5064942;28;20490;-75
2022/09/13 04:14:14;;;;;;;3.70;1.80;;;17.40;99.90;;;;;;5072980;28;20008;-75
2022/09/13 04:16:41;;;;;;;4.00;2.03;;;17.40;99.90;;;;;;5068351;28;20044;-75
2022/09/13 04:19:07;;;;;;;4.55;2.00;;;17.40;99.90;;;;;;5068372;28;20068;-75
2022/09/13 04:21:33;;;;;;;4.10;1.90;;;17.50;99.90;;;;;;5079708;28;20433;-75
2022/09/13 04:23:58;;;;;;;6.03;2.05;;;17.40;99.90;;;;;;5065881;28;20050;-75
2022/09/13 04:26:24;;;;;;;3.17;1.80;;;17.40;99.90;;;;;;5064299;28;20107;-75
2022/09/13 04:28:52;;;;;;;3.58;2.17;;;17.40;99.90;;;;;;5064431;28;20030;-76
2022/09/13 04:31:17;;;;;;;4.75;1.80;;;17.40;99.90;;;;;;5079727;28;20034;-77
2022/09/13 04:33:43;;;;;;;4.75;1.70;;;17.40;99.90;;;;;;5062317;28;20120;-76
2022/09/13 04:36:09;;;;;;;3.10;1.52;;;17.40;99.90;;;;;;5077371;28;20590;-76
2022/09/13 04:38:36;;;;;;;3.55;1.80;;;17.40;99.90;;;;;;5070506;28;20103;-76
2022/09/13 04:41:02;;;;;;;5.30;1.98;;;17.40;99.90;;;;;;5070400;28;20463;-76
2022/09/13 04:43:28;;;;;;;5.57;1.50;;;17.30;99.90;;;;;;5083110;28;20494;-76
2022/09/13 04:45:53;;;;;;;4.03;1.67;;;17.40;99.90;;;;;;5080517;28;20107;-77
2022/09/13 04:48:19;;;;;;;3.67;1.08;;;17.30;99.90;;;;;;5053873;28;20127;-76
2022/09/13 04:50:45;;;;;;;2.55;1.08;;;17.30;99.90;;;;;;5047868;28;20042;-76
2022/09/13 04:53:10;;;;;;;4.22;1.35;;;17.30;99.90;;;;;;5080205;28;20065;-76
2022/09/13 04:55:36;;;;;;;3.55;1.38;;;17.30;99.90;;;;;;5076139;28;20436;-76
2022/09/13 04:58:03;;;;;;;5.57;1.23;;;17.30;99.90;;;;;;5071000;28;20034;-76
2022/09/13 05:00:28;;;;;;;;;;;17.30;99.90;;;;;;5065963;28;20048;-76
2022/09/13 05:02:55;;;;;;;4.28;1.20;;;17.30;99.90;;;;;;5060687;28;19926;-76
2022/09/13 05:05:22;;;;;;;7.05;1.20;;;17.30;99.90;;;;;;5068526;28;20051;-76
2022/09/13 05:07:51;;;;;;;4.97;1.23;;;17.30;99.90;;;;;;5051319;28;20045;-76
2022/09/13 05:10:18;;;;;;;4.18;1.20;;;17.30;99.90;;;;;;5076011;28;20036;-76
2022/09/13 05:12:43;;;;;;;;;;;17.30;99.90;;;;;;5073643;28;20042;-76
2022/09/13 05:15:11;;;;;;;4.60;1.40;;;17.30;99.90;;;;;;5063940;28;19921;-76
2022/09/13 05:17:37;;;;;;;6.55;1.48;;;17.20;99.90;;;;;;5067008;28;20046;-76
2022/09/13 05:20:06;;;;;;;4.25;1.17;;;17.20;99.90;;;;;;5045339;28;20039;-76
2022/09/13 05:22:32;;;;;;;2.70;1.40;;;17.40;99.90;;;;;;5065745;28;20399;-76
2022/09/13 05:24:58;;;;;;;6.70;1.83;;;17.20;99.90;;;;;;5061684;28;20043;-76
2022/09/13 05:27:23;;;;;;;4.40;1.65;;;17.20;99.90;;;;;;5068022;28;20050;-76
2022/09/13 05:29:49;;;;;;;5.13;1.52;;;17.20;99.90;;;;;;5061960;28;20039;-76
2022/09/13 05:32:14;;;;;;;3.92;1.50;;;17.20;99.90;;;;;;5048121;28;20111;-76
2022/09/13 05:34:40;;;;;;;3.10;1.30;;;17.20;99.90;;;;;;5072389;28;20065;-76
2022/09/13 05:37:06;;;;;;;5.55;1.40;;;17.20;99.90;;;;;;5083695;28;20401;-76
2022/09/13 05:39:31;;;;;;;7.82;1.60;;;17.20;99.90;;;;;;5070495;28;20042;-76
2022/09/13 05:41:57;;;;;;;5.13;1.83;;;17.20;99.90;;;;;;5060720;28;20481;-76
2022/09/13 05:44:23;;;;;;;5.72;1.63;;;17.10;99.90;;;;;;5052081;28;20068;-76
2022/09/13 05:46:49;;;;;;;4.57;1.70;;;17.10;99.90;;;;;;5065069;28;20400;-76
2022/09/13 05:49:15;;;;;;;5.07;1.90;;;17.10;99.90;;;;;;5036456;28;20065;-76
2022/09/13 05:51:41;;;;;;;6.53;1.70;;;17.10;99.90;;;;;;5083533;28;20042;-76
2022/09/13 05:54:07;;;;;;;5.53;1.80;;;17.10;99.90;;;;;;5081838;28;20093;-76
2022/09/13 05:56:32;;;;;;;5.70;2.10;;;17.10;99.90;;;;;;5073236;28;20034;-76
2022/09/13 05:58:58;;;;;;;5.20;2.00;;;17.10;99.90;;;;;;5077834;28;20553;-76
2022/09/13 06:01:27;;;;;;;5.65;2.40;;;17.10;99.90;;;;;;5083774;28;20048;-76
2022/09/13 06:03:55;;;;;;;2.95;1.92;;;17.20;99.90;;;;;;5067535;28;20042;-76
2022/09/13 06:06:21;;;;;;;4.38;1.92;;;17.20;99.90;;;;;;5067004;28;20739;-77
2022/09/13 06:08:47;;;;;;;4.40;2.00;;;17.20;99.90;;;;;;5066647;28;20057;-76
2022/09/13 06:11:14;;;;;;;6.43;2.22;;;17.20;99.90;;;;;;5063545;28;20038;-76
2022/09/13 06:13:42;;;;;;;4.30;2.15;;;17.30;99.90;;;;;;5076679;28;20098;-76
2022/09/13 06:16:10;;;;;;;6.78;2.20;;;17.30;99.90;;;;;;5049392;28;20047;-76
2022/09/13 06:18:36;;;;;;;5.07;1.92;;;17.30;99.90;;;;;;5065898;28;20039;-76
2022/09/13 06:21:19;;;;;;;8.48;2.30;;;17.30;99.90;;;;;;5074174;28;20061;-76
2022/09/13 06:23:51;;;;;;;5.45;2.42;;;17.30;99.90;;;;;;5057104;28;20046;-76
2022/09/13 06:26:20;;;;;;;4.97;2.20;;;17.40;99.90;;;;;;5064835;28;20124;-76
2022/09/13 06:28:51;;;;;;;3.70;1.83;;;17.40;99.90;;;;;;5066604;28;20092;-76
2022/09/13 06:31:18;;;;;;;7.20;2.30;;;17.50;99.90;;;;;;5068841;28;20109;-77
2022/09/13 06:33:44;;;;;;;6.13;2.40;;;17.50;99.90;;;;;;5070492;28;20052;-75
2022/09/13 06:36:18;;;;;;;6.40;2.47;;;17.50;99.90;;;;;;5071347;28;20401;-76
2022/09/13 06:38:46;;;;;;;6.30;2.55;;;17.50;99.90;;;;;;5082264;28;20087;-76
2022/09/13 06:41:20;;;;;;;7.95;2.22;;;17.60;99.90;;;;;;5066968;28;20030;-75
2022/09/13 06:43:46;;;;;;;5.65;2.05;;;17.60;99.90;;;;;;5081609;28;20105;-76
2022/09/13 06:46:14;;;;;;;;;;;17.80;99.90;;;;;;5059592;28;20026;-76
2022/09/13 06:48:41;;;;;;;6.03;1.77;;;17.90;99.90;;;;;;5053160;28;20294;-76
2022/09/13 06:51:10;;;;;;;4.85;1.50;;;18.10;99.90;;;;;;5054096;28;20041;-76
2022/09/13 06:53:36;;;;;;;8.52;1.92;;;18.30;99.90;;;;;;5063010;28;20070;-76
2022/09/13 06:56:09;;;;;;;;;;;18.50;99.90;;;;;;5068567;28;20042;-76
2022/09/13 06:58:36;;;;;;;5.95;1.40;;;18.60;99.90;;;;;;5063594;28;19921;-77
2022/09/13 07:01:12;;;;;;;3.92;1.10;;;18.60;99.90;;;;;;5063946;28;20038;-76
2022/09/13 07:03:45;;;;;;;9.32;1.45;;;18.60;99.90;;;;;;5080721;28;20131;-76
2022/09/13 07:06:17;;;;;;;7.18;1.25;;;18.60;99.90;;;;;;5068219;28;20478;-76
2022/09/13 07:08:44;;;;;;;6.72;1.20;;;18.70;99.90;;;;;;5062056;28;20118;-76
2022/09/13 07:11:12;;;;;;;8.30;1.08;;;19.00;99.90;;;;;;5080669;28;20072;-76
2022/09/13 07:13:38;;;;;;;5.50;0.98;;;19.30;99.90;;;;;;5066485;28;20054;-76
2022/09/13 07:16:07;;;;;;;5.32;1.58;;;19.70;99.90;;;;;;5055647;28;20038;-77
2022/09/13 07:18:33;;;;;;;5.50;1.10;;;19.70;99.90;;;;;;5075818;28;20063;-77
2022/09/13 07:21:04;;;;;;;4.60;0.80;;;19.50;99.90;;;;;;5072239;28;20051;-77
2022/09/13 07:23:32;;;;;;;4.22;1.00;;;19.40;99.90;;;;;;5064293;28;20064;-77
2022/09/13 07:26:03;;;;;;;4.75;1.15;;;19.30;99.90;;;;;;5064261;28;20042;-77
2022/09/13 07:28:30;;;;;;;7.78;0.98;;;19.30;99.90;;;;;;5076239;28;20044;-77
2022/09/13 07:31:03;;;;;;;4.38;0.65;;;19.20;99.90;;;;;;5071624;28;20464;-76
2022/09/13 07:33:29;;;;;;;5.32;0.82;;;19.10;99.90;;;;;;5070068;28;20042;-77
2022/09/13 07:36:00;;;;;;;5.68;1.00;;;19.10;99.90;;;;;;5065898;28;20043;-77
2022/09/13 07:38:25;;;;;;;4.05;0.90;;;19.00;99.90;;;;;;5041892;28;20034;-77
2022/09/13 07:40:56;;;;;;;2.55;0.60;;;19.00;99.90;;;;;;5052226;28;20045;-77
2022/09/13 07:43:23;;;;;;;2.35;0.40;;;19.30;99.90;;;;;;5079992;28;20036;-76
2022/09/13 07:46:02;;;;;;;4.63;0.77;;;19.90;99.90;;;;;;5067511;28;20121;-77
2022/09/13 07:48:30;;;;;;;2.95;0.52;;;20.50;99.90;;;;;;5069373;28;20042;-76
2022/09/13 07:51:11;;;;;;;2.63;0.60;;;21.20;99.90;;;;;;5067394;28;20475;-76
2022/09/13 07:53:38;;;;;;;4.45;0.77;;;21.70;99.90;;;;;;5063034;28;20036;-76
2022/09/13 07:56:06;;;;;;;2.85;0.50;;;22.20;99.90;;;;;;5062119;28;20051;-76
2022/09/13 07:58:33;;;;;;;3.83;0.50;;;22.50;99.90;;;;;;5076347;28;20038;-76
2022/09/13 08:01:10;;;;;;;3.17;0.47;;;22.60;99.90;;;;;;5066926;28;20073;-76
2022/09/13 08:03:37;;;;;;;5.78;0.40;;;22.90;99.90;;;;;;5060581;28;20038;-76
2022/09/13 08:06:04;;;;;;;5.82;0.52;;;23.20;99.90;;;;;;5077636;28;20042;-77
2022/09/13 08:08:30;;;;;;;3.90;0.68;;;23.40;99.90;;;;;;5041707;28;20501;-76
2022/09/13 08:10:56;;;;;;;4.10;0.73;;;23.80;99.90;;;;;;5072810;28;20076;-76
2022/09/13 08:13:22;;;;;;;;;;;23.80;99.90;;;;;;5077722;28;20444;-76
2022/09/13 08:15:48;;;;;;;5.55;0.40;;;23.90;99.90;;;;;;5061563;28;19928;-76
2022/09/13 08:18:15;;;;;;;8.68;0.70;;;24.30;99.90;;;;;;5072397;28;20109;-76
2022/09/13 08:20:41;;;;;;;5.20;0.40;;;24.30;99.90;;;;;;5065772;28;20093;-76
2022/09/13 08:23:08;;;;;;;;;;;24.50;99.90;;;;;;5052255;28;20077;-76
2022/09/13 08:25:37;;;;;;;3.45;0.30;;;24.10;99.90;;;;;;5067848;28;19967;-76
2022/09/13 08:28:13;;;;;;;4.05;0.68;;;23.60;99.90;;;;;;5048483;28;20061;-77
2022/09/13 08:30:41;;;;;;;6.43;0.47;;;23.40;99.90;;;;;;5073904;28;20038;-77
2022/09/13 08:33:07;;;;;;;4.63;0.52;;;23.10;99.90;;;;;;5057344;28;20387;-76
2022/09/13 08:35:33;;;;;;;4.70;0.32;;;23.30;99.90;;;;;;5066000;28;20491;-76
2022/09/13 08:37:59;;;;;;;4.07;0.50;;;23.50;99.90;;;;;;5079525;28;20094;-77
2022/09/13 08:40:30;;;;;;;4.30;0.40;;;23.60;99.90;;;;;;5050061;28;20133;-77
2022/09/13 08:43:29;;;;;;;3.58;0.43;;;23.60;99.90;;;;;;5079375;28;20102;-77
2022/09/13 08:46:03;;;;;;;5.07;0.65;;;24.10;99.90;;;;;;5077127;28;20396;-77
2022/09/13 08:48:34;;;;;;;5.20;0.47;;;24.70;99.90;;;;;;5076408;28;20514;-77
2022/09/13 08:51:04;;;;;;;5.07;0.60;;;24.50;99.90;;;;;;5066856;28;20050;-76
2022/09/13 08:53:31;;;;;;;3.30;0.50;;;24.00;99.90;;;;;;5077087;28;20047;-77
2022/09/13 08:56:09;;;;;;;9.55;0.57;;;24.00;99.90;;;;;;5063477;28;20041;-77
2022/09/13 08:59:19;;;;;;;6.50;0.68;;;24.40;99.90;;;;;;5066315;28;20095;-77
2022/09/13 09:01:53;;;;;;;4.80;0.50;;;25.20;99.90;;;;;;5012591;28;20111;-77
2022/09/13 09:04:25;;;;;;;2.55;0.30;;;25.40;99.90;;;;;;5070740;28;20048;-77
2022/09/13 09:07:13;;;;;;;3.80;0.45;;;25.40;99.90;;;;;;5070603;28;20608;-77
2022/09/13 09:10:03;;;;;;;4.88;0.40;;;25.90;99.90;;;;;;5071183;28;20049;-76
2022/09/13 09:12:54;;;;;;;2.53;0.20;;;25.60;99.90;;;;;;5052676;28;20065;-77
2022/09/13 09:15:35;;;;;;;3.10;0.45;;;24.90;99.40;;;;;;5074389;28;20041;-77
2022/09/13 09:18:09;;;;;;;3.42;0.40;;;24.50;99.90;;;;;;5053110;28;20042;-77
2022/09/13 09:20:46;;;;;;;3.03;0.50;;;24.90;99.90;;;;;;5086492;28;20132;-77
2022/09/13 09:23:14;;;;;;;;;;;25.60;99.90;;;;;;5082605;28;20036;-77
2022/09/13 09:25:40;;;;;;;5.00;0.65;;;25.90;99.40;;;;;;5076810;28;19928;-77
2022/09/13 09:28:17;;;;;;;4.78;0.80;;;26.60;98.80;;;;;;5083735;28;20082;-77
2022/09/13 09:30:58;;;;;;;3.83;0.55;;;27.10;98.30;;;;;;5065093;28;20047;-77
2022/09/13 09:33:51;;;;;;;3.28;0.40;;;27.10;98.20;;;;;;5081044;28;20044;-77
2022/09/13 09:36:40;;;;;;;4.88;0.60;;;26.40;97.10;;;;;;5061562;28;20086;-77
2022/09/13 09:39:12;;;;;;;2.60;0.40;;;26.40;97.50;;;;;;5086497;28;20044;-77
2022/09/13 09:41:38;;;;;;;5.05;0.50;;;27.00;96.60;;;;;;5084586;28;20111;-75
2022/09/13 09:44:21;;;;;;;2.45;0.68;;;27.50;96.50;;;;;;5083452;28;20040;-77
2022/09/13 09:46:50;;;;;;;2.47;0.40;;;27.80;96.10;;;;;;5077922;28;20098;-77
2022/09/13 09:52:31;;;;;;;6.55;0.43;;;28.00;96.00;;;;;;5078968;28;20052;-77
2022/09/13 09:55:09;;;;;;;4.85;0.40;;;28.20;96.70;;;;;;5081313;28;20470;-77
2022/09/13 09:57:54;;;;;;;8.13;0.80;;;28.30;95.30;;;;;;5079908;28;20075;-77
2022/09/13 10:00:22;;;;;;;4.28;0.40;;;27.60;95.90;;;;;;5082980;28;20040;-77
2022/09/13 10:02:51;;;;;;;3.38;0.45;;;27.50;95.70;;;;;;5083185;28;20044;-77
2022/09/13 10:05:22;;;;;;;2.80;0.30;;;27.50;96.10;;;;;;5080836;28;20074;-76
2022/09/13 10:07:57;;;;;;;3.00;0.57;;;27.20;96.90;;;;;;5082680;28;20047;-78
2022/09/13 10:10:27;;;;;;;5.05;0.55;;;26.30;96.30;;;;;;5080265;28;20037;-76
2022/09/13 10:12:55;;;;;;;2.72;0.47;;;25.40;97.50;;;;;;5081244;28;20031;-76
2022/09/13 10:15:25;;;;;;;5.13;0.55;;;25.20;98.10;;;;;;5077433;28;20037;-77
2022/09/13 10:18:15;;;;;;;4.00;0.70;;;25.40;97.80;;;;;;5082082;28;20055;-76
2022/09/13 10:20:42;;;;;;;3.10;0.35;;;25.90;97.80;;;;;;5078379;28;20056;-77
2022/09/13 10:23:13;;;;;;;4.07;0.50;;;26.70;97.40;;;;;;5064485;28;20052;-77
2022/09/13 10:25:40;;;;;;;4.93;0.40;;;27.40;97.30;;;;;;5079838;28;20288;-77
2022/09/13 10:28:13;;;;;;;5.13;0.95;;;27.90;96.60;;;;;;5068805;28;20418;-77
2022/09/13 10:30:44;;;;;;;4.78;0.50;;;28.00;95.80;;;;;;5078045;28;20036;-77
2022/09/13 10:33:37;;;;;;;5.50;0.75;;;28.10;95.10;;;;;;5082173;28;20043;-77
2022/09/13 10:36:31;;;;;;;2.83;0.50;;;28.30;95.40;;;;;;5073829;28;20404;-77
2022/09/13 10:39:00;;;;;;;3.05;0.45;;;28.50;96.00;;;;;;5072050;28;20040;-77
2022/09/13 10:41:28;;;;;;;3.78;0.40;;;28.20;95.30;;;;;;5071519;28;20054;-76
2022/09/13 10:44:00;;;;;;;3.30;0.30;;;27.80;95.20;;;;;;5078226;28;20119;-76
2022/09/13 10:46:28;;;;;;;5.03;0.43;;;27.30;95.00;;;;;;5080645;28;20075;-76
2022/09/13 10:48:57;;;;;;;4.80;0.35;;;26.80;95.00;;;;;;5084731;28;20485;-78
2022/09/13 10:51:35;;;;;;;2.35;0.28;;;26.20;95.80;;;;;;5072937;28;20064;-76
2022/09/13 10:54:19;;;;;;;6.13;0.50;;;25.80;96.10;;;;;;5060206;28;20063;-77
2022/09/13 10:56:46;;;;;;;3.72;0.40;;;25.90;96.40;;;;;;5078334;28;20467;-77
2022/09/13 10:59:26;;;;;;;2.78;0.43;;;26.40;96.40;;;;;;5083970;28;20083;-77
2022/09/13 11:02:36;;;;;;;2.72;0.30;;;27.10;96.10;;;;;;5082621;28;20501;-77
2022/09/13 11:05:19;;;;;;;1.88;0.40;;;27.70;94.20;;;;;;5081074;28;20135;-77
2022/09/13 11:08:10;;;;;;;5.32;0.73;;;28.20;94.20;;;;;;5058528;28;20136;-78
2022/09/13 11:10:52;;;;;;;5.03;0.30;;;28.70;93.60;;;;;;5066985;28;20071;-77
2022/09/13 11:13:38;;;;;;;3.75;0.40;;;29.00;93.10;;;;;;5076119;28;20064;-76
2022/09/13 11:16:14;;;;;;;3.63;0.68;;;29.20;93.60;;;;;;5075199;28;20042;-78
2022/09/13 11:19:17;;;;;;;6.38;0.65;;;28.30;93.20;;;;;;5062483;28;20051;-78
2022/09/13 11:21:58;;;;;;;2.70;0.50;;;27.60;93.90;;;;;;5083461;28;20060;-76
2022/09/13 11:24:28;;;;;;;3.28;0.40;;;27.40;94.10;;;;;;5059552;28;20051;-75
2022/09/13 11:27:08;;;;;;;3.70;0.35;;;27.40;94.10;;;;;;5078920;28;20044;-75
2022/09/13 11:29:45;;;;;;;2.95;0.40;;;27.30;93.40;;;;;;5077858;28;20071;-75
2022/09/13 11:32:39;;;;;;;4.53;0.40;;;27.30;93.60;;;;;;5081241;28;20089;-75
2022/09/13 11:35:13;;;;;;;3.83;0.80;;;27.40;93.40;;;;;;5066885;28;20123;-75
2022/09/13 11:38:09;;;;;;;3.63;0.28;;;27.40;93.50;;;;;;5079353;28;20063;-75
2022/09/13 11:40:54;;;;;;;4.50;0.57;;;27.10;93.40;;;;;;5082036;28;20048;-75
2022/09/13 11:43:38;;;;;;;3.17;0.40;;;27.30;94.70;;;;;;5078680;28;20046;-75
2022/09/13 11:46:25;;;;;;;3.55;0.52;;;27.10;94.90;;;;;;5078113;28;20040;-75
2022/09/13 11:49:01;;;;;;;4.78;0.70;;;26.80;95.40;;;;;;5076144;28;20037;-75
2022/09/13 11:51:41;;;;;;;4.47;0.77;;;26.90;94.30;;;;;;5083844;28;20104;-75
2022/09/13 11:54:42;;;;;;;4.03;0.60;;;27.40;94.60;;;;;;5075734;28;20473;-75
2022/09/13 11:57:33;;;;;;;8.93;0.80;;;28.00;94.30;;;;;;5085686;28;20082;-75
2022/09/13 12:00:24;;;;;;;3.92;0.50;;;28.40;93.70;;;;;;5077570;28;20127;-75
2022/09/13 12:03:13;;;;;;;4.13;0.60;;;28.90;93.70;;;;;;5079341;28;20123;-76
2022/09/13 12:05:53;;;;;;;4.13;0.50;;;29.30;93.70;;;;;;5080998;28;20052;-76
2022/09/13 12:08:28;;;;;;;4.70;0.60;;;29.40;93.20;;;;;;5061131;28;20067;-76
2022/09/13 12:11:03;;;;;;;6.88;0.65;;;29.30;93.00;;;;;;5077496;28;20043;-76
2022/09/13 12:13:44;;;;;;;3.30;0.40;;;29.80;93.80;;;;;;5063275;28;20032;-76
2022/09/13 12:16:37;;;;;;;4.00;0.70;;;29.40;92.70;;;;;;5073683;28;20048;-76
2022/09/13 12:19:23;;;;;;;4.88;0.60;;;29.00;93.40;;;;;;5080904;28;20499;-75
2022/09/13 12:21:51;;;;;;;9.73;0.70;;;27.90;93.10;;;;;;5038486;28;20064;-75
2022/09/13 12:24:29;;;;;;;3.97;0.68;;;27.80;93.90;;;;;;5028182;28;20334;-75
2022/09/13 12:27:01;;;;;;;5.55;0.73;;;27.80;93.80;;;;;;5040531;28;20039;-75
2022/09/13 12:29:27;;;;;;;4.45;0.50;;;28.00;93.50;;;;;;5021074;28;20040;-74
2022/09/13 12:31:58;;;;;;;4.45;0.30;;;28.00;93.80;;;;;;5015902;28;20440;-74
2022/09/13 12:34:33;;;;;;;4.70;0.80;;;28.30;93.60;;;;;;5022197;28;20036;-75
2022/09/13 12:37:26;;;;;;;4.97;0.73;;;28.10;93.40;;;;;;5023326;28;20054;-76
2022/09/13 12:39:57;;;;;;;3.83;0.52;;;28.40;93.50;;;;;;5013167;28;20552;-75
2022/09/13 12:42:55;;;;;;;6.32;0.75;;;28.00;93.30;;;;;;5032815;28;20473;-76
2022/09/13 12:45:42;;;;;;;4.13;0.60;;;27.20;94.00;;;;;;5006072;28;20494;-74
2022/09/13 12:48:36;;;;;;;4.40;0.70;;;27.30;93.90;;;;;;5008757;28;20059;-75
2022/09/13 12:51:22;;;;;;;5.07;1.05;;;27.50;94.20;;;;;;5002872;28;20048;-75
2022/09/13 12:54:08;;;;;;;5.65;0.57;;;27.50;94.20;;;;;;5019593;28;20038;-75
2022/09/13 12:56:49;;;;;;;4.27;0.70;;;26.90;93.80;;;;;;5031436;28;20040;-74
2022/09/13 12:59:23;;;;;;;3.30;0.52;;;26.30;94.10;;;;;;5044497;28;20048;-75
2022/09/13 13:01:50;;;;;;;7.35;0.70;;;26.10;94.70;;;;;;5025214;28;20033;-75
2022/09/13 13:04:24;;;;;;;4.53;0.60;;;26.30;94.50;;;;;;5037440;28;20060;-75
2022/09/13 13:07:00;;;;;;;4.45;0.80;;;26.40;94.50;;;;;;5045747;28;20506;-75
2022/09/13 13:09:58;;;;;;;5.25;0.50;;;26.50;94.10;;;;;;5010484;28;20044;-75
2022/09/13 13:12:36;;;;;;;6.85;0.65;;;26.60;94.30;;;;;;5014687;28;20533;-75
2022/09/13 13:15:14;;;;;;;4.30;0.52;;;26.40;94.40;;;;;;4996560;28;20545;-75
2022/09/13 13:17:48;;;;;;;4.53;0.63;;;26.10;94.20;;;;;;5026102;28;20477;-75
2022/09/13 13:20:52;;;;;;;3.03;0.50;;;25.80;94.00;;;;;;5024790;28;20042;-75
2022/09/13 13:23:34;;;;;;;5.88;0.70;;;25.60;94.10;;;;;;5078173;28;20079;-75